createdAt,value
2019-01-31T00:02:11.404Z,96428.09
2019-01-31T00:06:36.548Z,96425.78
2019-01-31T00:10:52.665Z,96416.75
2019-01-31T00:15:05.784Z,96407.06
2019-01-31T00:19:46.268Z,96407.25
2019-01-31T00:24:05.360Z,96398.47
2019-01-31T00:28:41.096Z,96398.73
2019-01-31T00:33:10.651Z,96397.99
2019-01-31T00:37:53.973Z,96396.25
2019-01-31T00:42:31.318Z,96394.44
2019-01-31T00:46:50.246Z,96385.44
2019-01-31T00:51:23.946Z,96378.14
2019-01-31T00:55:45.888Z,96375.66
2019-01-31T01:00:02.249Z,96367.55
2019-01-31T01:04:42.833Z,96362.73
2019-01-31T01:09:07.758Z,96365.70
2019-01-31T01:13:28.908Z,96366.87
2019-01-31T01:17:44.941Z,96369.80
2019-01-31T01:22:34.962Z,96368.15
2019-01-31T01:26:56.977Z,96361.93
2019-01-31T01:31:18.534Z,96371.30
2019-01-31T01:35:37.516Z,96366.12
2019-01-31T01:39:50.704Z,96367.41
2019-01-31T01:44:08.080Z,96364.38
2019-01-31T01:48:18.334Z,96360.30
2019-01-31T01:52:37.196Z,96361.84
2019-01-31T01:56:56.084Z,96363.41
2019-01-31T02:01:15.300Z,96363.87
2019-01-31T02:05:40.034Z,96364.16
2019-01-31T02:10:08.473Z,96363.09
2019-01-31T02:14:30.398Z,96361.80
2019-01-31T02:18:47.367Z,96361.78
2019-01-31T02:23:08.664Z,96349.22
2019-01-31T02:27:33.584Z,96335.39
2019-01-31T02:31:58.519Z,96331.17
2019-01-31T02:36:35.929Z,96328.55
2019-01-31T02:41:07.525Z,96327.64
2019-01-31T02:45:51.231Z,96333.99
2019-01-31T02:50:20.716Z,96327.30
2019-01-31T02:54:52.077Z,96320.87
2019-01-31T02:59:24.858Z,96308.91
2019-01-31T03:03:58.766Z,96306.77
2019-01-31T03:08:14.663Z,96293.77
2019-01-31T03:12:36.972Z,96294.13
2019-01-31T03:17:18.972Z,96294.00
2019-01-31T03:21:38.036Z,96274.25
2019-01-31T03:26:06.486Z,96277.12
2019-01-31T03:30:41.079Z,96275.66
2019-01-31T03:35:19.760Z,96273.73
2019-01-31T03:39:32.773Z,96278.59
2019-01-31T03:43:57.912Z,96281.02
2019-01-31T03:48:27.315Z,96276.83
2019-01-31T03:52:55.337Z,96280.09
2019-01-31T03:57:23.512Z,96277.38
2019-01-31T04:01:57.989Z,96282.70
2019-01-31T04:06:10.728Z,96275.92
2019-01-31T04:10:18.966Z,96275.16
2019-01-31T04:14:27.170Z,96270.88
2019-01-31T04:18:31.470Z,96272.91
2019-01-31T04:22:37.323Z,96268.73
2019-01-31T04:26:43.089Z,96265.53
2019-01-31T04:30:48.767Z,96259.30
2019-01-31T04:34:54.509Z,96264.20
2019-01-31T04:39:00.180Z,96263.41
2019-01-31T04:43:05.866Z,96266.58
2019-01-31T04:47:11.552Z,96260.92
2019-01-31T04:51:17.250Z,96257.07
2019-01-31T04:55:22.931Z,96261.03
2019-01-31T04:59:28.706Z,96260.70
2019-01-31T05:03:34.512Z,96264.88
2019-01-31T05:07:40.212Z,96256.03
2019-01-31T05:11:45.901Z,96256.72
2019-01-31T05:15:51.595Z,96252.76
2019-01-31T05:19:57.263Z,96249.59
2019-01-31T05:24:02.949Z,96248.97
2019-01-31T05:28:08.628Z,96248.18
2019-01-31T05:32:14.424Z,96251.61
2019-01-31T05:36:20.283Z,96250.14
2019-01-31T05:40:25.961Z,96240.16
2019-01-31T05:44:31.624Z,96248.34
2019-01-31T05:48:37.396Z,96253.21
2019-01-31T05:52:43.084Z,96247.14
2019-01-31T05:56:48.837Z,96255.20
2019-01-31T06:00:54.539Z,96260.50
2019-01-31T06:05:00.197Z,96259.71
2019-01-31T06:09:08.824Z,96267.84
2019-01-31T06:13:14.593Z,96264.03
2019-01-31T06:17:20.289Z,96266.63
2019-01-31T06:21:25.967Z,96266.70
2019-01-31T06:25:31.652Z,96271.81
2019-01-31T06:29:37.319Z,96266.67
2019-01-31T06:33:43.006Z,96266.97
2019-01-31T06:37:48.714Z,96262.12
2019-01-31T06:41:54.409Z,96274.03
2019-01-31T06:46:00.192Z,96275.58
2019-01-31T06:50:09.504Z,96280.85
2019-01-31T06:54:15.192Z,96281.11
2019-01-31T06:58:20.888Z,96278.38
2019-01-31T07:02:26.685Z,96282.39
2019-01-31T07:06:32.370Z,96278.85
2019-01-31T07:10:38.038Z,96284.88
2019-01-31T07:14:43.722Z,96302.81
2019-01-31T07:18:49.419Z,96307.65
2019-01-31T07:22:55.480Z,96317.96
2019-01-31T07:27:01.248Z,96317.06
2019-01-31T07:31:07.246Z,96318.94
2019-01-31T07:35:15.318Z,96324.15
2019-01-31T07:39:20.988Z,96326.66
2019-01-31T07:43:26.755Z,96330.13
2019-01-31T07:47:32.441Z,96335.53
2019-01-31T07:51:38.125Z,96329.64
2019-01-31T07:55:43.790Z,96331.00
2019-01-31T07:59:49.476Z,96339.91
2019-01-31T08:04:02.171Z,96342.47
2019-01-31T08:08:02.660Z,96344.17
2019-01-31T08:12:08.596Z,96344.82
2019-01-31T08:16:14.257Z,96352.29
2019-01-31T08:20:21.650Z,96353.78
2019-01-31T08:24:27.335Z,96351.86
2019-01-31T08:28:33.005Z,96355.53
2019-01-31T08:32:38.699Z,96351.78
2019-01-31T08:36:44.414Z,96358.03
2019-01-31T08:40:50.095Z,96356.24
2019-01-31T08:44:55.795Z,96354.16
2019-01-31T08:49:01.563Z,96363.98
2019-01-31T08:53:07.462Z,96364.59
2019-01-31T08:57:13.294Z,96358.63
2019-01-31T09:01:18.966Z,96355.59
2019-01-31T09:05:24.662Z,96362.82
2019-01-31T09:09:30.347Z,96355.00
2019-01-31T09:13:38.096Z,96359.16
2019-01-31T09:17:44.618Z,96363.86
2019-01-31T09:21:50.534Z,96366.91
2019-01-31T09:26:30.660Z,96362.97
2019-01-31T09:31:26.196Z,96357.72
2019-01-31T09:36:02.182Z,96353.94
2019-01-31T09:41:17.001Z,96357.23
2019-01-31T09:46:16.528Z,96371.70
2019-01-31T09:50:38.006Z,96374.20
2019-01-31T10:01:15.582Z,96367.27
2019-01-31T10:05:31.630Z,96371.48
2019-01-31T10:10:20.865Z,96372.80
2019-01-31T10:15:21.532Z,96370.31
2019-01-31T10:20:16.385Z,96366.86
2019-01-31T10:25:15.698Z,96364.60
2019-01-31T10:30:15.115Z,96354.77
2019-01-31T10:34:31.009Z,96351.58
2019-01-31T10:39:15.569Z,96345.97
2019-01-31T10:43:28.803Z,96342.91
2019-01-31T10:48:15.507Z,96340.75
2019-01-31T10:52:33.938Z,96331.83
2019-01-31T10:57:18.264Z,96321.95
2019-01-31T11:08:02.710Z,96322.66
2019-01-31T11:12:33.841Z,96313.70
2019-01-31T11:16:49.389Z,96303.84
2019-01-31T11:21:23.065Z,96303.84
2019-01-31T11:25:39.168Z,96294.21
2019-01-31T11:29:55.210Z,96287.01
2019-01-31T11:34:20.501Z,96276.83
2019-01-31T11:38:45.509Z,96274.16
2019-01-31T11:43:11.854Z,96258.47
2019-01-31T11:47:51.492Z,96259.63
2019-01-31T11:52:19.324Z,96260.58
2019-01-31T11:57:05.424Z,96251.47
2019-01-31T12:01:10.850Z,96250.77
2019-01-31T12:05:16.787Z,96240.11
2019-01-31T12:09:23.273Z,96243.76
2019-01-31T12:13:29.104Z,96230.28
2019-01-31T12:17:34.851Z,96221.28
2019-01-31T12:21:40.764Z,96225.06
2019-01-31T12:25:46.652Z,96221.75
2019-01-31T12:29:52.351Z,96219.56
2019-01-31T12:33:58.048Z,96217.80
2019-01-31T12:38:03.796Z,96219.17
2019-01-31T12:42:09.542Z,96213.02
2019-01-31T12:46:17.633Z,96209.86
2019-01-31T12:50:25.455Z,96202.88
2019-01-31T12:54:31.276Z,96206.68
2019-01-31T12:58:37.186Z,96209.30
2019-01-31T13:02:42.857Z,96202.02
2019-01-31T13:06:48.549Z,96191.48
2019-01-31T13:10:54.306Z,96195.79
2019-01-31T13:14:59.996Z,96187.37
2019-01-31T13:19:06.214Z,96188.41
2019-01-31T13:24:18.020Z,96181.94
2019-01-31T13:29:16.272Z,96179.98
2019-01-31T13:33:21.963Z,96164.81
2019-01-31T13:37:27.738Z,96161.35
2019-01-31T13:42:18.176Z,96154.65
2019-01-31T13:46:24.065Z,96156.91
2019-01-31T13:50:29.819Z,96160.19
2019-01-31T13:54:35.784Z,96160.81
2019-01-31T13:58:41.452Z,96160.02
2019-01-31T14:02:47.195Z,96163.92
2019-01-31T14:06:52.887Z,96163.31
2019-01-31T14:10:58.636Z,96156.19
2019-01-31T14:15:09.761Z,96162.49
2019-01-31T14:19:15.508Z,96160.73
2019-01-31T14:23:21.198Z,96158.78
2019-01-31T14:27:26.879Z,96157.54
2019-01-31T14:31:32.568Z,96160.91
2019-01-31T14:35:38.265Z,96161.92
2019-01-31T14:39:44.012Z,96152.46
2019-01-31T14:43:49.690Z,96146.16
2019-01-31T14:47:55.999Z,96138.97
2019-01-31T14:52:19.550Z,96138.96
2019-01-31T14:57:16.303Z,96140.77
2019-01-31T15:01:21.976Z,96135.97
2019-01-31T15:05:30.922Z,96136.25
2019-01-31T15:09:36.588Z,96129.31
2019-01-31T15:13:42.281Z,96132.91
2019-01-31T15:17:48.036Z,96138.84
2019-01-31T15:22:17.518Z,96135.64
2019-01-31T15:31:19.005Z,96135.58
2019-01-31T15:35:24.765Z,96130.00
2019-01-31T15:39:30.431Z,96128.14
2019-01-31T15:44:18.137Z,96129.37
2019-01-31T15:48:23.819Z,96129.25
2019-01-31T15:57:19.337Z,96128.20
2019-01-31T16:01:25.165Z,96118.18
2019-01-31T16:05:30.858Z,96125.19
2019-01-31T16:09:36.669Z,96117.91
2019-01-31T16:13:42.562Z,96127.77
2019-01-31T16:17:48.285Z,96117.50
2019-01-31T16:22:17.877Z,96116.84
2019-01-31T16:26:23.643Z,96124.70
2019-01-31T16:30:29.382Z,96119.47
2019-01-31T16:35:17.808Z,96113.12
2019-01-31T16:39:23.498Z,96107.94
2019-01-31T16:43:29.279Z,96103.16
2019-01-31T16:47:35.047Z,96090.42
2019-01-31T16:51:40.732Z,96088.35
2019-01-31T16:55:46.533Z,96079.47
2019-01-31T16:59:52.372Z,96068.78
2019-01-31T17:03:58.063Z,96053.73
2019-01-31T17:08:04.169Z,96048.74
2019-01-31T17:12:29.304Z,96059.45
2019-01-31T17:16:35.080Z,96062.66
2019-01-31T17:20:42.820Z,96059.95
2019-01-31T17:24:48.609Z,96052.64
2019-01-31T17:28:54.374Z,96051.53
2019-01-31T17:33:01.919Z,96053.26
2019-01-31T17:37:07.753Z,96059.72
2019-01-31T17:48:15.209Z,96063.19
2019-01-31T17:58:18.853Z,96061.50
2019-01-31T18:09:16.879Z,96058.91
2019-01-31T18:19:18.447Z,96051.56
2019-01-31T18:34:18.803Z,96025.64
2019-01-31T18:45:16.427Z,95995.22
2019-01-31T18:49:22.109Z,95970.35
2019-01-31T18:53:27.827Z,95962.95
2019-01-31T18:58:16.462Z,95957.61
2019-01-31T19:03:16.042Z,95951.22
2019-01-31T19:07:58.186Z,95954.91
2019-01-31T19:12:19.099Z,95945.02
2019-01-31T19:16:24.767Z,95935.43
2019-01-31T19:25:19.543Z,95922.31
2019-01-31T19:29:25.781Z,95915.33
2019-01-31T19:33:31.778Z,95915.51
2019-01-31T19:37:37.529Z,95912.94
2019-01-31T19:46:19.153Z,95891.38
2019-01-31T19:50:25.043Z,95885.62
2019-01-31T19:54:32.407Z,95886.13
2019-01-31T19:58:38.176Z,95876.03
2019-01-31T20:03:17.004Z,95876.70
2019-01-31T20:07:22.819Z,95883.91
2019-01-31T20:11:28.734Z,95880.45
2019-01-31T20:15:34.497Z,95881.66
2019-01-31T20:19:40.205Z,95881.34
2019-01-31T20:24:15.543Z,95886.17
2019-01-31T20:28:21.341Z,95882.12
2019-01-31T20:32:27.319Z,95881.06
2019-01-31T20:36:33.069Z,95883.16
2019-01-31T20:40:40.579Z,95877.45
2019-01-31T20:45:19.498Z,95874.75
2019-01-31T20:49:25.193Z,95874.14
2019-01-31T20:53:30.939Z,95879.40
2019-01-31T20:57:36.596Z,95887.06
2019-01-31T21:01:42.371Z,95881.06
2019-01-31T21:06:18.193Z,95872.66
2019-01-31T21:10:26.350Z,95864.06
2019-01-31T21:14:31.508Z,95871.59
2019-01-31T21:18:37.259Z,95860.33
2019-01-31T21:22:43.092Z,95845.52
2019-01-31T21:27:18.576Z,95828.14
2019-01-31T21:31:24.365Z,95825.90
2019-01-31T21:35:31.316Z,95808.83
2019-01-31T21:39:36.997Z,95810.37
2019-01-31T21:43:42.670Z,95796.58
2019-01-31T21:52:20.821Z,95787.19
2019-01-31T22:14:16.239Z,95781.92
2019-01-31T22:49:14.685Z,95743.39
2019-01-31T23:05:14.948Z,95709.14
2019-01-31T23:26:19.078Z,95681.52
2019-01-31T23:30:24.836Z,95666.98
2019-01-31T23:34:30.515Z,95660.23
2019-01-31T23:38:36.405Z,95660.67
2019-01-31T23:43:17.875Z,95660.67
2019-01-31T23:47:23.575Z,95658.45
2019-01-31T23:51:29.333Z,95654.55
2019-01-31T23:55:35.096Z,95645.85
2019-01-31T23:59:40.760Z,95645.41
